sensor_id;sensor_type;location;lat;lon;timestamp;P1;durP1;ratioP1;P2;durP2;ratioP2
15451;SDS011;7827;53.594;9.938;2023-06-22T00:01:04;0.40;;;0.40;;
15451;SDS011;7827;53.594;9.938;2023-06-22T00:03:32;0.47;;;0.47;;
15451;SDS011;7827;53.594;9.938;2023-06-22T00:06:00;0.40;;;0.40;;
15451;SDS011;7827;53.594;9.938;2023-06-22T00:08:31;0.50;;;0.50;;
15451;SDS011;7827;53.594;9.938;2023-06-22T00:10:59;0.40;;;0.40;;
15451;SDS011;7827;53.594;9.938;2023-06-22T00:13:28;0.50;;;0.50;;
15451;SDS011;7827;53.594;9.938;2023-06-22T00:15:56;0.50;;;0.50;;
15451;SDS011;7827;53.594;9.938;2023-06-22T00:18:24;0.40;;;0.40;;
15451;SDS011;7827;53.594;9.938;2023-06-22T00:20:54;0.40;;;0.40;;
15451;SDS011;7827;53.594;9.938;2023-06-22T00:23:25;0.50;;;0.50;;
15451;SDS011;7827;53.594;9.938;2023-06-22T00:25:56;0.40;;;0.40;;
15451;SDS011;7827;53.594;9.938;2023-06-22T00:28:24;0.40;;;0.40;;
15451;SDS011;7827;53.594;9.938;2023-06-22T00:30:53;0.40;;;0.40;;
15451;SDS011;7827;53.594;9.938;2023-06-22T00:33:21;0.40;;;0.40;;
15451;SDS011;7827;53.594;9.938;2023-06-22T00:35:50;0.40;;;0.40;;
15451;SDS011;7827;53.594;9.938;2023-06-22T00:38:19;0.45;;;0.45;;
15451;SDS011;7827;53.594;9.938;2023-06-22T00:40:48;0.40;;;0.40;;
15451;SDS011;7827;53.594;9.938;2023-06-22T00:43:17;0.40;;;0.40;;
15451;SDS011;7827;53.594;9.938;2023-06-22T00:45:46;0.40;;;0.40;;
15451;SDS011;7827;53.594;9.938;2023-06-22T00:48:16;0.40;;;0.40;;
15451;SDS011;7827;53.594;9.938;2023-06-22T00:50:47;0.50;;;0.50;;
15451;SDS011;7827;53.594;9.938;2023-06-22T00:53:16;0.50;;;0.50;;
15451;SDS011;7827;53.594;9.938;2023-06-22T00:55:46;0.40;;;0.40;;
15451;SDS011;7827;53.594;9.938;2023-06-22T00:58:19;0.40;;;0.40;;
15451;SDS011;7827;53.594;9.938;2023-06-22T01:00:48;0.40;;;0.40;;
15451;SDS011;7827;53.594;9.938;2023-06-22T01:03:16;0.40;;;0.40;;
15451;SDS011;7827;53.594;9.938;2023-06-22T01:05:47;0.50;;;0.50;;
15451;SDS011;7827;53.594;9.938;2023-06-22T01:08:21;0.50;;;0.50;;
15451;SDS011;7827;53.594;9.938;2023-06-22T01:11:00;0.40;;;0.40;;
15451;SDS011;7827;53.594;9.938;2023-06-22T01:13:40;0.40;;;0.40;;
15451;SDS011;7827;53.594;9.938;2023-06-22T01:16:27;0.50;;;0.50;;
15451;SDS011;7827;53.594;9.938;2023-06-22T01:19:00;0.50;;;0.50;;
15451;SDS011;7827;53.594;9.938;2023-06-22T01:21:40;0.40;;;0.40;;
15451;SDS011;7827;53.594;9.938;2023-06-22T01:24:11;0.40;;;0.40;;
15451;SDS011;7827;53.594;9.938;2023-06-22T01:26:54;0.40;;;0.40;;
15451;SDS011;7827;53.594;9.938;2023-06-22T01:29:34;0.40;;;0.40;;
15451;SDS011;7827;53.594;9.938;2023-06-22T01:32:06;0.50;;;0.50;;
15451;SDS011;7827;53.594;9.938;2023-06-22T01:34:35;0.40;;;0.40;;
15451;SDS011;7827;53.594;9.938;2023-06-22T01:37:07;0.40;;;0.40;;
15451;SDS011;7827;53.594;9.938;2023-06-22T01:39:35;0.40;;;0.40;;
15451;SDS011;7827;53.594;9.938;2023-06-22T01:42:04;0.40;;;0.40;;
15451;SDS011;7827;53.594;9.938;2023-06-22T01:44:35;0.43;;;0.43;;
15451;SDS011;7827;53.594;9.938;2023-06-22T01:47:08;0.45;;;0.45;;
15451;SDS011;7827;53.594;9.938;2023-06-22T01:49:36;0.50;;;0.50;;
15451;SDS011;7827;53.594;9.938;2023-06-22T01:52:05;0.50;;;0.50;;
15451;SDS011;7827;53.594;9.938;2023-06-22T01:54:34;0.40;;;0.40;;
15451;SDS011;7827;53.594;9.938;2023-06-22T01:57:03;0.40;;;0.40;;
15451;SDS011;7827;53.594;9.938;2023-06-22T01:59:32;0.50;;;0.50;;
15451;SDS011;7827;53.594;9.938;2023-06-22T02:02:09;0.47;;;0.47;;
15451;SDS011;7827;53.594;9.938;2023-06-22T02:04:42;0.45;;;0.45;;
15451;SDS011;7827;53.594;9.938;2023-06-22T02:07:18;0.40;;;0.40;;
15451;SDS011;7827;53.594;9.938;2023-06-22T02:09:52;0.40;;;0.40;;
15451;SDS011;7827;53.594;9.938;2023-06-22T02:12:24;0.50;;;0.50;;
15451;SDS011;7827;53.594;9.938;2023-06-22T02:14:56;0.52;;;0.52;;
15451;SDS011;7827;53.594;9.938;2023-06-22T02:17:29;0.40;;;0.40;;
15451;SDS011;7827;53.594;9.938;2023-06-22T02:20:01;0.50;;;0.50;;
15451;SDS011;7827;53.594;9.938;2023-06-22T02:22:35;0.40;;;0.40;;
15451;SDS011;7827;53.594;9.938;2023-06-22T02:25:03;0.50;;;0.50;;
15451;SDS011;7827;53.594;9.938;2023-06-22T02:27:32;0.50;;;0.50;;
15451;SDS011;7827;53.594;9.938;2023-06-22T02:30:02;0.43;;;0.43;;
15451;SDS011;7827;53.594;9.938;2023-06-22T02:32:32;0.47;;;0.47;;
15451;SDS011;7827;53.594;9.938;2023-06-22T02:35:01;0.55;;;0.55;;
15451;SDS011;7827;53.594;9.938;2023-06-22T02:37:31;0.40;;;0.40;;
15451;SDS011;7827;53.594;9.938;2023-06-22T02:39:59;0.50;;;0.50;;
15451;SDS011;7827;53.594;9.938;2023-06-22T02:42:28;0.50;;;0.50;;
15451;SDS011;7827;53.594;9.938;2023-06-22T02:44:56;0.45;;;0.45;;
15451;SDS011;7827;53.594;9.938;2023-06-22T02:47:26;0.50;;;0.50;;
15451;SDS011;7827;53.594;9.938;2023-06-22T02:49:55;0.50;;;0.50;;
15451;SDS011;7827;53.594;9.938;2023-06-22T02:52:24;0.50;;;0.50;;
15451;SDS011;7827;53.594;9.938;2023-06-22T02:54:52;0.60;;;0.60;;
15451;SDS011;7827;53.594;9.938;2023-06-22T02:57:21;0.57;;;0.57;;
15451;SDS011;7827;53.594;9.938;2023-06-22T02:59:49;0.50;;;0.50;;
15451;SDS011;7827;53.594;9.938;2023-06-22T03:02:17;0.50;;;0.50;;
15451;SDS011;7827;53.594;9.938;2023-06-22T03:04:49;0.50;;;0.50;;
15451;SDS011;7827;53.594;9.938;2023-06-22T03:07:20;0.40;;;0.40;;
15451;SDS011;7827;53.594;9.938;2023-06-22T03:09:50;0.43;;;0.43;;
15451;SDS011;7827;53.594;9.938;2023-06-22T03:12:18;0.50;;;0.50;;
15451;SDS011;7827;53.594;9.938;2023-06-22T03:14:51;0.45;;;0.45;;
15451;SDS011;7827;53.594;9.938;2023-06-22T03:17:19;0.50;;;0.50;;
15451;SDS011;7827;53.594;9.938;2023-06-22T03:19:49;0.40;;;0.40;;
15451;SDS011;7827;53.594;9.938;2023-06-22T03:22:17;0.45;;;0.45;;
15451;SDS011;7827;53.594;9.938;2023-06-22T03:24:46;0.45;;;0.45;;
15451;SDS011;7827;53.594;9.938;2023-06-22T03:27:14;0.30;;;0.30;;
15451;SDS011;7827;53.594;9.938;2023-06-22T03:29:43;0.50;;;0.50;;
15451;SDS011;7827;53.594;9.938;2023-06-22T03:32:11;0.50;;;0.50;;
15451;SDS011;7827;53.594;9.938;2023-06-22T03:34:39;0.50;;;0.50;;
15451;SDS011;7827;53.594;9.938;2023-06-22T03:37:14;0.50;;;0.50;;
15451;SDS011;7827;53.594;9.938;2023-06-22T03:39:43;0.50;;;0.50;;
15451;SDS011;7827;53.594;9.938;2023-06-22T03:42:12;0.60;;;0.60;;
15451;SDS011;7827;53.594;9.938;2023-06-22T03:44:41;0.50;;;0.50;;
15451;SDS011;7827;53.594;9.938;2023-06-22T03:47:09;0.47;;;0.47;;
15451;SDS011;7827;53.594;9.938;2023-06-22T03:49:37;0.50;;;0.50;;
15451;SDS011;7827;53.594;9.938;2023-06-22T03:52:06;0.40;;;0.40;;
15451;SDS011;7827;53.594;9.938;2023-06-22T03:54:38;0.40;;;0.40;;
15451;SDS011;7827;53.594;9.938;2023-06-22T03:57:07;0.50;;;0.50;;
15451;SDS011;7827;53.594;9.938;2023-06-22T03:59:35;0.40;;;0.40;;
15451;SDS011;7827;53.594;9.938;2023-06-22T04:02:04;0.40;;;0.40;;
15451;SDS011;7827;53.594;9.938;2023-06-22T04:04:32;0.40;;;0.40;;
15451;SDS011;7827;53.594;9.938;2023-06-22T04:07:01;0.40;;;0.40;;
15451;SDS011;7827;53.594;9.938;2023-06-22T04:09:30;0.40;;;0.40;;
15451;SDS011;7827;53.594;9.938;2023-06-22T04:12:00;0.40;;;0.40;;
15451;SDS011;7827;53.594;9.938;2023-06-22T04:14:29;0.30;;;0.30;;
15451;SDS011;7827;53.594;9.938;2023-06-22T04:16:58;0.40;;;0.40;;
15451;SDS011;7827;53.594;9.938;2023-06-22T04:19:26;0.40;;;0.40;;
15451;SDS011;7827;53.594;9.938;2023-06-22T04:21:55;0.40;;;0.40;;
15451;SDS011;7827;53.594;9.938;2023-06-22T04:24:23;0.50;;;0.50;;
15451;SDS011;7827;53.594;9.938;2023-06-22T04:26:52;0.40;;;0.40;;
15451;SDS011;7827;53.594;9.938;2023-06-22T04:29:22;0.40;;;0.40;;
15451;SDS011;7827;53.594;9.938;2023-06-22T04:31:55;0.40;;;0.40;;
15451;SDS011;7827;53.594;9.938;2023-06-22T04:34:25;0.50;;;0.50;;
15451;SDS011;7827;53.594;9.938;2023-06-22T04:36:54;0.40;;;0.40;;
15451;SDS011;7827;53.594;9.938;2023-06-22T04:39:23;0.40;;;0.40;;
15451;SDS011;7827;53.594;9.938;2023-06-22T04:41:53;0.40;;;0.40;;
15451;SDS011;7827;53.594;9.938;2023-06-22T04:44:27;0.40;;;0.40;;
15451;SDS011;7827;53.594;9.938;2023-06-22T04:46:56;0.40;;;0.40;;
15451;SDS011;7827;53.594;9.938;2023-06-22T04:49:29;0.40;;;0.40;;
15451;SDS011;7827;53.594;9.938;2023-06-22T04:52:01;0.45;;;0.45;;
15451;SDS011;7827;53.594;9.938;2023-06-22T04:54:31;0.50;;;0.50;;
15451;SDS011;7827;53.594;9.938;2023-06-22T04:57:00;0.40;;;0.40;;
15451;SDS011;7827;53.594;9.938;2023-06-22T04:59:32;0.40;;;0.40;;
15451;SDS011;7827;53.594;9.938;2023-06-22T05:02:01;0.40;;;0.40;;
15451;SDS011;7827;53.594;9.938;2023-06-22T05:04:30;0.45;;;0.45;;
15451;SDS011;7827;53.594;9.938;2023-06-22T05:06:59;0.40;;;0.40;;
15451;SDS011;7827;53.594;9.938;2023-06-22T05:09:29;0.40;;;0.40;;
15451;SDS011;7827;53.594;9.938;2023-06-22T05:12:00;0.40;;;0.40;;
15451;SDS011;7827;53.594;9.938;2023-06-22T05:14:29;0.40;;;0.40;;
15451;SDS011;7827;53.594;9.938;2023-06-22T05:16:59;0.30;;;0.30;;
15451;SDS011;7827;53.594;9.938;2023-06-22T05:19:30;0.40;;;0.40;;
15451;SDS011;7827;53.594;9.938;2023-06-22T05:22:00;0.40;;;0.40;;
15451;SDS011;7827;53.594;9.938;2023-06-22T05:24:29;0.40;;;0.40;;
15451;SDS011;7827;53.594;9.938;2023-06-22T05:27:15;0.40;;;0.40;;
15451;SDS011;7827;53.594;9.938;2023-06-22T05:30:02;0.40;;;0.40;;
15451;SDS011;7827;53.594;9.938;2023-06-22T05:32:48;0.30;;;0.30;;
15451;SDS011;7827;53.594;9.938;2023-06-22T05:35:36;0.40;;;0.40;;
15451;SDS011;7827;53.594;9.938;2023-06-22T05:38:04;0.40;;;0.40;;
15451;SDS011;7827;53.594;9.938;2023-06-22T05:40:33;0.40;;;0.40;;
15451;SDS011;7827;53.594;9.938;2023-06-22T05:43:01;0.30;;;0.30;;
15451;SDS011;7827;53.594;9.938;2023-06-22T05:45:31;0.30;;;0.30;;
15451;SDS011;7827;53.594;9.938;2023-06-22T05:47:59;0.40;;;0.40;;
15451;SDS011;7827;53.594;9.938;2023-06-22T05:50:28;0.40;;;0.40;;
15451;SDS011;7827;53.594;9.938;2023-06-22T05:52:57;0.40;;;0.40;;
15451;SDS011;7827;53.594;9.938;2023-06-22T05:55:25;0.30;;;0.30;;
15451;SDS011;7827;53.594;9.938;2023-06-22T05:57:53;0.40;;;0.40;;
15451;SDS011;7827;53.594;9.938;2023-06-22T06:00:22;0.35;;;0.35;;
15451;SDS011;7827;53.594;9.938;2023-06-22T06:02:53;0.30;;;0.30;;
15451;SDS011;7827;53.594;9.938;2023-06-22T06:05:22;0.40;;;0.40;;
15451;SDS011;7827;53.594;9.938;2023-06-22T06:07:52;0.40;;;0.40;;
15451;SDS011;7827;53.594;9.938;2023-06-22T06:10:20;0.40;;;0.40;;
15451;SDS011;7827;53.594;9.938;2023-06-22T06:12:48;0.40;;;0.40;;
15451;SDS011;7827;53.594;9.938;2023-06-22T06:15:17;0.30;;;0.30;;
15451;SDS011;7827;53.594;9.938;2023-06-22T06:17:46;0.30;;;0.30;;
15451;SDS011;7827;53.594;9.938;2023-06-22T06:20:17;0.30;;;0.30;;
15451;SDS011;7827;53.594;9.938;2023-06-22T06:22:47;0.40;;;0.40;;
15451;SDS011;7827;53.594;9.938;2023-06-22T06:25:16;0.30;;;0.30;;
15451;SDS011;7827;53.594;9.938;2023-06-22T06:27:49;0.30;;;0.30;;
15451;SDS011;7827;53.594;9.938;2023-06-22T06:30:20;0.30;;;0.30;;
15451;SDS011;7827;53.594;9.938;2023-06-22T06:32:49;0.35;;;0.35;;
15451;SDS011;7827;53.594;9.938;2023-06-22T06:35:20;0.30;;;0.30;;
15451;SDS011;7827;53.594;9.938;2023-06-22T06:37:48;0.40;;;0.40;;
15451;SDS011;7827;53.594;9.938;2023-06-22T06:40:18;0.30;;;0.30;;
15451;SDS011;7827;53.594;9.938;2023-06-22T06:42:47;0.40;;;0.40;;
15451;SDS011;7827;53.594;9.938;2023-06-22T06:45:17;0.30;;;0.30;;
15451;SDS011;7827;53.594;9.938;2023-06-22T06:47:49;0.40;;;0.40;;
15451;SDS011;7827;53.594;9.938;2023-06-22T06:50:20;0.32;;;0.32;;
15451;SDS011;7827;53.594;9.938;2023-06-22T06:52:49;0.40;;;0.40;;
15451;SDS011;7827;53.594;9.938;2023-06-22T06:55:18;0.30;;;0.30;;
15451;SDS011;7827;53.594;9.938;2023-06-22T06:57:47;0.40;;;0.40;;
15451;SDS011;7827;53.594;9.938;2023-06-22T07:00:16;0.30;;;0.30;;
15451;SDS011;7827;53.594;9.938;2023-06-22T07:02:46;0.40;;;0.40;;
15451;SDS011;7827;53.594;9.938;2023-06-22T07:05:16;0.40;;;0.40;;
15451;SDS011;7827;53.594;9.938;2023-06-22T07:07:46;0.40;;;0.40;;
15451;SDS011;7827;53.594;9.938;2023-06-22T07:10:15;0.30;;;0.30;;
15451;SDS011;7827;53.594;9.938;2023-06-22T07:12:43;0.40;;;0.40;;
15451;SDS011;7827;53.594;9.938;2023-06-22T07:15:12;0.30;;;0.30;;
15451;SDS011;7827;53.594;9.938;2023-06-22T07:17:41;0.30;;;0.30;;
15451;SDS011;7827;53.594;9.938;2023-06-22T07:20:10;0.30;;;0.30;;
15451;SDS011;7827;53.594;9.938;2023-06-22T07:22:39;0.30;;;0.30;;
15451;SDS011;7827;53.594;9.938;2023-06-22T07:25:12;0.30;;;0.30;;
15451;SDS011;7827;53.594;9.938;2023-06-22T07:27:45;0.30;;;0.30;;
15451;SDS011;7827;53.594;9.938;2023-06-22T07:30:25;0.30;;;0.30;;
15451;SDS011;7827;53.594;9.938;2023-06-22T07:32:55;0.30;;;0.30;;
15451;SDS011;7827;53.594;9.938;2023-06-22T07:35:24;0.30;;;0.30;;
15451;SDS011;7827;53.594;9.938;2023-06-22T07:37:52;0.28;;;0.28;;
15451;SDS011;7827;53.594;9.938;2023-06-22T07:40:22;0.30;;;0.30;;
15451;SDS011;7827;53.594;9.938;2023-06-22T07:42:51;0.30;;;0.30;;
15451;SDS011;7827;53.594;9.938;2023-06-22T07:45:20;0.20;;;0.20;;
15451;SDS011;7827;53.594;9.938;2023-06-22T07:47:48;0.30;;;0.30;;
15451;SDS011;7827;53.594;9.938;2023-06-22T07:50:17;0.30;;;0.30;;
15451;SDS011;7827;53.594;9.938;2023-06-22T07:52:46;0.22;;;0.22;;
15451;SDS011;7827;53.594;9.938;2023-06-22T07:55:15;0.30;;;0.30;;
15451;SDS011;7827;53.594;9.938;2023-06-22T07:57:46;0.25;;;0.25;;
15451;SDS011;7827;53.594;9.938;2023-06-22T08:00:20;0.20;;;0.20;;
15451;SDS011;7827;53.594;9.938;2023-06-22T08:02:49;0.20;;;0.20;;
15451;SDS011;7827;53.594;9.938;2023-06-22T08:05:18;0.30;;;0.30;;
15451;SDS011;7827;53.594;9.938;2023-06-22T08:07:48;0.20;;;0.20;;
15451;SDS011;7827;53.594;9.938;2023-06-22T08:10:17;0.30;;;0.30;;
15451;SDS011;7827;53.594;9.938;2023-06-22T08:12:48;0.30;;;0.30;;
15451;SDS011;7827;53.594;9.938;2023-06-22T08:15:16;0.30;;;0.30;;
15451;SDS011;7827;53.594;9.938;2023-06-22T08:17:45;0.20;;;0.20;;
15451;SDS011;7827;53.594;9.938;2023-06-22T08:20:32;0.20;;;0.20;;
15451;SDS011;7827;53.594;9.938;2023-06-22T08:23:18;0.30;;;0.30;;
15451;SDS011;7827;53.594;9.938;2023-06-22T08:26:05;0.30;;;0.30;;
15451;SDS011;7827;53.594;9.938;2023-06-22T08:28:36;0.25;;;0.25;;
15451;SDS011;7827;53.594;9.938;2023-06-22T08:31:05;0.20;;;0.20;;
15451;SDS011;7827;53.594;9.938;2023-06-22T08:33:33;0.20;;;0.20;;
15451;SDS011;7827;53.594;9.938;2023-06-22T08:36:01;0.22;;;0.22;;
15451;SDS011;7827;53.594;9.938;2023-06-22T08:38:32;0.20;;;0.20;;
15451;SDS011;7827;53.594;9.938;2023-06-22T08:41:01;0.20;;;0.20;;
15451;SDS011;7827;53.594;9.938;2023-06-22T08:43:29;0.30;;;0.30;;
15451;SDS011;7827;53.594;9.938;2023-06-22T08:45:59;0.20;;;0.20;;
15451;SDS011;7827;53.594;9.938;2023-06-22T08:48:29;0.20;;;0.20;;
15451;SDS011;7827;53.594;9.938;2023-06-22T08:50:58;0.20;;;0.20;;
15451;SDS011;7827;53.594;9.938;2023-06-22T08:53:26;0.25;;;0.25;;
15451;SDS011;7827;53.594;9.938;2023-06-22T08:55:55;0.20;;;0.20;;
15451;SDS011;7827;53.594;9.938;2023-06-22T08:58:23;0.20;;;0.20;;
15451;SDS011;7827;53.594;9.938;2023-06-22T09:00:52;0.22;;;0.22;;
15451;SDS011;7827;53.594;9.938;2023-06-22T09:03:21;0.20;;;0.20;;
15451;SDS011;7827;53.594;9.938;2023-06-22T09:05:53;0.20;;;0.20;;
15451;SDS011;7827;53.594;9.938;2023-06-22T09:08:22;0.30;;;0.30;;
15451;SDS011;7827;53.594;9.938;2023-06-22T09:10:50;0.28;;;0.28;;
15451;SDS011;7827;53.594;9.938;2023-06-22T09:13:18;0.20;;;0.20;;
15451;SDS011;7827;53.594;9.938;2023-06-22T09:15:48;0.20;;;0.20;;
15451;SDS011;7827;53.594;9.938;2023-06-22T09:18:17;0.20;;;0.20;;
15451;SDS011;7827;53.594;9.938;2023-06-22T09:21:06;0.20;;;0.20;;
15451;SDS011;7827;53.594;9.938;2023-06-22T09:23:53;0.20;;;0.20;;
15451;SDS011;7827;53.594;9.938;2023-06-22T09:26:40;0.20;;;0.20;;
15451;SDS011;7827;53.594;9.938;2023-06-22T09:29:27;0.20;;;0.20;;
15451;SDS011;7827;53.594;9.938;2023-06-22T09:31:56;0.20;;;0.20;;
15451;SDS011;7827;53.594;9.938;2023-06-22T09:34:24;0.20;;;0.20;;
15451;SDS011;7827;53.594;9.938;2023-06-22T09:36:54;0.20;;;0.20;;
15451;SDS011;7827;53.594;9.938;2023-06-22T09:39:23;0.20;;;0.20;;
15451;SDS011;7827;53.594;9.938;2023-06-22T09:41:52;0.20;;;0.20;;
15451;SDS011;7827;53.594;9.938;2023-06-22T09:44:20;0.20;;;0.20;;
15451;SDS011;7827;53.594;9.938;2023-06-22T09:46:48;0.20;;;0.20;;
15451;SDS011;7827;53.594;9.938;2023-06-22T09:49:17;0.20;;;0.20;;
15451;SDS011;7827;53.594;9.938;2023-06-22T09:52:05;0.20;;;0.20;;
15451;SDS011;7827;53.594;9.938;2023-06-22T09:54:34;0.20;;;0.20;;
15451;SDS011;7827;53.594;9.938;2023-06-22T09:57:02;0.20;;;0.20;;
15451;SDS011;7827;53.594;9.938;2023-06-22T09:59:31;0.20;;;0.20;;
15451;SDS011;7827;53.594;9.938;2023-06-22T10:02:00;0.20;;;0.20;;
15451;SDS011;7827;53.594;9.938;2023-06-22T10:04:28;0.20;;;0.20;;
15451;SDS011;7827;53.594;9.938;2023-06-22T10:06:57;0.20;;;0.20;;
15451;SDS011;7827;53.594;9.938;2023-06-22T10:09:27;0.20;;;0.20;;
15451;SDS011;7827;53.594;9.938;2023-06-22T10:11:56;0.20;;;0.20;;
15451;SDS011;7827;53.594;9.938;2023-06-22T10:14:24;0.20;;;0.20;;
15451;SDS011;7827;53.594;9.938;2023-06-22T10:16:53;0.10;;;0.10;;
15451;SDS011;7827;53.594;9.938;2023-06-22T10:19:25;0.10;;;0.10;;
15451;SDS011;7827;53.594;9.938;2023-06-22T10:21:54;0.15;;;0.15;;
15451;SDS011;7827;53.594;9.938;2023-06-22T10:24:22;0.20;;;0.20;;
15451;SDS011;7827;53.594;9.938;2023-06-22T10:26:52;0.10;;;0.10;;
15451;SDS011;7827;53.594;9.938;2023-06-22T10:29:20;0.15;;;0.15;;
15451;SDS011;7827;53.594;9.938;2023-06-22T10:31:49;0.10;;;0.10;;
15451;SDS011;7827;53.594;9.938;2023-06-22T10:34:17;0.20;;;0.20;;
15451;SDS011;7827;53.594;9.938;2023-06-22T10:36:45;0.20;;;0.20;;
15451;SDS011;7827;53.594;9.938;2023-06-22T10:39:15;0.20;;;0.20;;
15451;SDS011;7827;53.594;9.938;2023-06-22T10:41:44;0.20;;;0.20;;
15451;SDS011;7827;53.594;9.938;2023-06-22T10:44:13;0.10;;;0.10;;
15451;SDS011;7827;53.594;9.938;2023-06-22T10:46:43;0.13;;;0.13;;
15451;SDS011;7827;53.594;9.938;2023-06-22T10:49:12;0.10;;;0.10;;
15451;SDS011;7827;53.594;9.938;2023-06-22T10:51:40;0.13;;;0.13;;
15451;SDS011;7827;53.594;9.938;2023-06-22T10:54:08;0.10;;;0.10;;
15451;SDS011;7827;53.594;9.938;2023-06-22T10:56:40;0.10;;;0.10;;
15451;SDS011;7827;53.594;9.938;2023-06-22T10:59:08;0.20;;;0.20;;
15451;SDS011;7827;53.594;9.938;2023-06-22T11:01:38;0.20;;;0.20;;
15451;SDS011;7827;53.594;9.938;2023-06-22T11:04:06;0.20;;;0.20;;
15451;SDS011;7827;53.594;9.938;2023-06-22T11:06:35;0.20;;;0.20;;
15451;SDS011;7827;53.594;9.938;2023-06-22T11:09:03;0.10;;;0.10;;
15451;SDS011;7827;53.594;9.938;2023-06-22T11:11:52;0.20;;;0.20;;
15451;SDS011;7827;53.594;9.938;2023-06-22T11:14:20;0.10;;;0.10;;
15451;SDS011;7827;53.594;9.938;2023-06-22T11:16:50;0.20;;;0.20;;
15451;SDS011;7827;53.594;9.938;2023-06-22T11:19:19;0.20;;;0.20;;
15451;SDS011;7827;53.594;9.938;2023-06-22T11:22:05;0.20;;;0.20;;
15451;SDS011;7827;53.594;9.938;2023-06-22T11:24:34;0.20;;;0.20;;
15451;SDS011;7827;53.594;9.938;2023-06-22T11:27:02;0.20;;;0.20;;
15451;SDS011;7827;53.594;9.938;2023-06-22T11:29:32;0.20;;;0.20;;
15451;SDS011;7827;53.594;9.938;2023-06-22T11:32:06;0.20;;;0.20;;
15451;SDS011;7827;53.594;9.938;2023-06-22T11:34:37;0.20;;;0.20;;
15451;SDS011;7827;53.594;9.938;2023-06-22T11:37:06;0.20;;;0.20;;
15451;SDS011;7827;53.594;9.938;2023-06-22T11:39:34;0.20;;;0.20;;
15451;SDS011;7827;53.594;9.938;2023-06-22T11:42:08;0.20;;;0.20;;
15451;SDS011;7827;53.594;9.938;2023-06-22T11:44:37;0.20;;;0.20;;
15451;SDS011;7827;53.594;9.938;2023-06-22T11:47:07;0.10;;;0.10;;
15451;SDS011;7827;53.594;9.938;2023-06-22T11:49:35;0.20;;;0.20;;
15451;SDS011;7827;53.594;9.938;2023-06-22T11:52:04;0.20;;;0.20;;
15451;SDS011;7827;53.594;9.938;2023-06-22T11:54:33;0.15;;;0.15;;
15451;SDS011;7827;53.594;9.938;2023-06-22T11:57:02;0.20;;;0.20;;
15451;SDS011;7827;53.594;9.938;2023-06-22T11:59:31;0.10;;;0.10;;
15451;SDS011;7827;53.594;9.938;2023-06-22T12:01:59;0.20;;;0.20;;
15451;SDS011;7827;53.594;9.938;2023-06-22T12:04:29;0.20;;;0.20;;
15451;SDS011;7827;53.594;9.938;2023-06-22T12:06:57;0.20;;;0.20;;
15451;SDS011;7827;53.594;9.938;2023-06-22T12:09:26;0.20;;;0.20;;
15451;SDS011;7827;53.594;9.938;2023-06-22T12:11:54;0.20;;;0.20;;
15451;SDS011;7827;53.594;9.938;2023-06-22T12:14:23;0.20;;;0.20;;
15451;SDS011;7827;53.594;9.938;2023-06-22T12:16:51;0.10;;;0.10;;
15451;SDS011;7827;53.594;9.938;2023-06-22T12:19:19;0.13;;;0.13;;
15451;SDS011;7827;53.594;9.938;2023-06-22T12:21:49;0.20;;;0.20;;
15451;SDS011;7827;53.594;9.938;2023-06-22T12:24:17;0.10;;;0.10;;
15451;SDS011;7827;53.594;9.938;2023-06-22T12:26:46;0.10;;;0.10;;
15451;SDS011;7827;53.594;9.938;2023-06-22T12:29:14;0.10;;;0.10;;
15451;SDS011;7827;53.594;9.938;2023-06-22T12:31:43;0.10;;;0.10;;
15451;SDS011;7827;53.594;9.938;2023-06-22T12:34:11;0.10;;;0.10;;
15451;SDS011;7827;53.594;9.938;2023-06-22T12:36:40;0.10;;;0.10;;
15451;SDS011;7827;53.594;9.938;2023-06-22T12:39:09;0.10;;;0.10;;
15451;SDS011;7827;53.594;9.938;2023-06-22T12:41:38;0.20;;;0.20;;
15451;SDS011;7827;53.594;9.938;2023-06-22T12:44:06;0.10;;;0.10;;
15451;SDS011;7827;53.594;9.938;2023-06-22T12:46:34;0.10;;;0.10;;
15451;SDS011;7827;53.594;9.938;2023-06-22T12:49:04;0.10;;;0.10;;
15451;SDS011;7827;53.594;9.938;2023-06-22T12:51:32;0.10;;;0.10;;
15451;SDS011;7827;53.594;9.938;2023-06-22T12:54:01;0.10;;;0.10;;
15451;SDS011;7827;53.594;9.938;2023-06-22T12:56:31;0.17;;;0.17;;
15451;SDS011;7827;53.594;9.938;2023-06-22T12:59:00;0.20;;;0.20;;
15451;SDS011;7827;53.594;9.938;2023-06-22T13:01:29;0.10;;;0.10;;
15451;SDS011;7827;53.594;9.938;2023-06-22T13:03:58;0.10;;;0.10;;
15451;SDS011;7827;53.594;9.938;2023-06-22T13:06:27;0.15;;;0.15;;
15451;SDS011;7827;53.594;9.938;2023-06-22T13:08:55;0.13;;;0.13;;
15451;SDS011;7827;53.594;9.938;2023-06-22T13:11:45;0.20;;;0.20;;
15451;SDS011;7827;53.594;9.938;2023-06-22T13:14:16;0.20;;;0.20;;
15451;SDS011;7827;53.594;9.938;2023-06-22T13:16:44;0.20;;;0.20;;
15451;SDS011;7827;53.594;9.938;2023-06-22T13:19:12;0.10;;;0.10;;
15451;SDS011;7827;53.594;9.938;2023-06-22T13:21:41;0.10;;;0.10;;
15451;SDS011;7827;53.594;9.938;2023-06-22T13:24:09;0.20;;;0.20;;
15451;SDS011;7827;53.594;9.938;2023-06-22T13:26:37;0.17;;;0.17;;
15451;SDS011;7827;53.594;9.938;2023-06-22T13:29:07;0.20;;;0.20;;
15451;SDS011;7827;53.594;9.938;2023-06-22T13:31:35;0.20;;;0.20;;
15451;SDS011;7827;53.594;9.938;2023-06-22T13:34:22;0.10;;;0.10;;
15451;SDS011;7827;53.594;9.938;2023-06-22T13:37:08;0.20;;;0.20;;
15451;SDS011;7827;53.594;9.938;2023-06-22T13:39:54;0.20;;;0.20;;
15451;SDS011;7827;53.594;9.938;2023-06-22T13:42:43;0.20;;;0.20;;
15451;SDS011;7827;53.594;9.938;2023-06-22T13:45:30;0.20;;;0.20;;
15451;SDS011;7827;53.594;9.938;2023-06-22T13:48:16;0.20;;;0.20;;
15451;SDS011;7827;53.594;9.938;2023-06-22T13:51:02;0.10;;;0.10;;
15451;SDS011;7827;53.594;9.938;2023-06-22T13:53:31;0.10;;;0.10;;
15451;SDS011;7827;53.594;9.938;2023-06-22T13:55:59;0.20;;;0.20;;
15451;SDS011;7827;53.594;9.938;2023-06-22T13:58:27;0.10;;;0.10;;
15451;SDS011;7827;53.594;9.938;2023-06-22T14:00:57;0.20;;;0.20;;
15451;SDS011;7827;53.594;9.938;2023-06-22T14:03:25;0.20;;;0.20;;
15451;SDS011;7827;53.594;9.938;2023-06-22T14:05:54;0.20;;;0.20;;
15451;SDS011;7827;53.594;9.938;2023-06-22T14:08:24;0.20;;;0.20;;
15451;SDS011;7827;53.594;9.938;2023-06-22T14:10:55;0.10;;;0.10;;
15451;SDS011;7827;53.594;9.938;2023-06-22T14:13:24;0.20;;;0.20;;
15451;SDS011;7827;53.594;9.938;2023-06-22T14:15:52;0.20;;;0.20;;
15451;SDS011;7827;53.594;9.938;2023-06-22T14:18:22;0.20;;;0.20;;
15451;SDS011;7827;53.594;9.938;2023-06-22T14:20:50;0.13;;;0.13;;
15451;SDS011;7827;53.594;9.938;2023-06-22T14:23:18;0.13;;;0.13;;
15451;SDS011;7827;53.594;9.938;2023-06-22T14:25:47;0.20;;;0.20;;
15451;SDS011;7827;53.594;9.938;2023-06-22T14:28:15;0.20;;;0.20;;
15451;SDS011;7827;53.594;9.938;2023-06-22T14:30:44;0.20;;;0.20;;
15451;SDS011;7827;53.594;9.938;2023-06-22T14:33:12;0.20;;;0.20;;
15451;SDS011;7827;53.594;9.938;2023-06-22T14:35:42;0.20;;;0.20;;
15451;SDS011;7827;53.594;9.938;2023-06-22T14:38:10;0.15;;;0.15;;
15451;SDS011;7827;53.594;9.938;2023-06-22T14:40:39;0.17;;;0.17;;
15451;SDS011;7827;53.594;9.938;2023-06-22T14:43:27;0.20;;;0.20;;
15451;SDS011;7827;53.594;9.938;2023-06-22T14:45:55;0.20;;;0.20;;
15451;SDS011;7827;53.594;9.938;2023-06-22T14:48:24;0.20;;;0.20;;
15451;SDS011;7827;53.594;9.938;2023-06-22T14:50:56;0.20;;;0.20;;
15451;SDS011;7827;53.594;9.938;2023-06-22T14:53:26;0.10;;;0.10;;
15451;SDS011;7827;53.594;9.938;2023-06-22T14:55:55;0.20;;;0.20;;
15451;SDS011;7827;53.594;9.938;2023-06-22T14:58:23;0.20;;;0.20;;
15451;SDS011;7827;53.594;9.938;2023-06-22T15:00:52;0.10;;;0.10;;
15451;SDS011;7827;53.594;9.938;2023-06-22T15:03:20;0.20;;;0.20;;
15451;SDS011;7827;53.594;9.938;2023-06-22T15:05:52;0.20;;;0.20;;
15451;SDS011;7827;53.594;9.938;2023-06-22T15:08:22;0.10;;;0.10;;
15451;SDS011;7827;53.594;9.938;2023-06-22T15:10:51;0.20;;;0.20;;
15451;SDS011;7827;53.594;9.938;2023-06-22T15:13:19;0.20;;;0.20;;
15451;SDS011;7827;53.594;9.938;2023-06-22T15:15:48;0.20;;;0.20;;
15451;SDS011;7827;53.594;9.938;2023-06-22T15:18:18;0.20;;;0.20;;
15451;SDS011;7827;53.594;9.938;2023-06-22T15:20:46;0.20;;;0.20;;